createdAt,value
2017-12-28T00:00:54.005Z,85.78
2017-12-28T00:01:54.008Z,85.41
2017-12-28T00:02:54.012Z,84.28
2017-12-28T00:03:54.007Z,83.99
2017-12-28T00:04:54.014Z,84.28
2017-12-28T00:05:54.015Z,84.65
2017-12-28T00:06:54.014Z,84.94
2017-12-28T00:07:54.017Z,84.84
2017-12-28T00:08:54.018Z,84.94
2017-12-28T00:09:54.012Z,85.31
2017-12-28T00:10:54.012Z,85.41
2017-12-28T00:11:54.020Z,86.16
2017-12-28T00:12:54.017Z,86.44
2017-12-28T00:13:54.017Z,86.82
2017-12-28T00:14:54.016Z,86.72
2017-12-28T00:15:54.022Z,85.88
2017-12-28T00:16:54.024Z,84.37
2017-12-28T00:17:54.018Z,83.61
2017-12-28T00:18:54.026Z,84.09
2017-12-28T00:19:54.020Z,84.37
2017-12-28T00:20:54.026Z,84.37
2017-12-28T00:21:54.021Z,84.47
2017-12-28T00:22:54.028Z,82.86
2017-12-28T00:23:54.024Z,83.61
2017-12-28T00:24:54.028Z,83.43
2017-12-28T00:25:54.032Z,83.43
2017-12-28T00:26:54.024Z,83.71
2017-12-28T00:27:54.032Z,84.09
2017-12-28T00:28:54.031Z,84.47
2017-12-28T00:29:54.030Z,84.37
2017-12-28T00:30:54.034Z,84.65
2017-12-28T00:31:54.028Z,84.18
2017-12-28T00:32:54.029Z,84.75
2017-12-28T00:33:54.033Z,84.37
2017-12-28T00:34:54.037Z,85.22
2017-12-28T00:35:54.035Z,85.22
2017-12-28T00:36:54.037Z,85.03
2017-12-28T00:37:54.031Z,85.60
2017-12-28T00:38:54.032Z,85.97
2017-12-28T00:39:54.038Z,86.44
2017-12-28T00:40:54.039Z,86.63
2017-12-28T00:41:54.034Z,86.44
2017-12-28T00:42:54.033Z,84.75
2017-12-28T00:43:54.036Z,84.28
2017-12-28T00:44:54.035Z,83.33
2017-12-28T00:45:54.043Z,83.52
2017-12-28T00:46:54.041Z,82.58
2017-12-28T00:47:54.041Z,82.29
2017-12-28T00:48:54.043Z,82.39
2017-12-28T00:49:54.039Z,82.67
2017-12-28T00:50:54.049Z,82.20
2017-12-28T00:51:54.039Z,82.20
2017-12-28T00:52:54.042Z,80.98
2017-12-28T00:53:54.041Z,80.60
2017-12-28T00:54:54.040Z,79.00
2017-12-28T00:55:54.042Z,78.52
2017-12-28T00:56:54.042Z,78.62
2017-12-28T00:57:54.050Z,79.19
2017-12-28T00:58:54.049Z,79.37
2017-12-28T00:59:54.049Z,79.28
2017-12-28T01:00:54.051Z,79.56
2017-12-28T01:01:54.051Z,80.79
2017-12-28T01:02:54.047Z,80.41
2017-12-28T01:03:54.047Z,80.51
2017-12-28T01:04:54.048Z,80.79
2017-12-28T01:05:54.056Z,80.69
2017-12-28T01:06:54.054Z,80.88
2017-12-28T01:07:54.052Z,80.60
2017-12-28T01:08:54.050Z,80.60
2017-12-28T01:09:54.057Z,79.75
2017-12-28T01:10:54.054Z,79.28
2017-12-28T01:11:54.054Z,79.66
2017-12-28T01:12:54.054Z,80.32
2017-12-28T01:13:54.060Z,81.92
2017-12-28T01:14:54.062Z,84.09
2017-12-28T01:15:54.060Z,86.35
2017-12-28T01:16:54.065Z,84.28
2017-12-28T01:17:54.066Z,82.29
2017-12-28T01:18:54.062Z,81.73
2017-12-28T01:19:54.068Z,81.63
2017-12-28T01:20:54.070Z,80.98
2017-12-28T01:21:54.069Z,80.32
2017-12-28T01:22:54.071Z,80.69
2017-12-28T01:23:54.072Z,81.26
2017-12-28T01:24:54.068Z,81.35
2017-12-28T01:25:54.068Z,81.26
2017-12-28T01:26:54.073Z,81.07
2017-12-28T01:27:54.070Z,81.26
2017-12-28T01:28:54.071Z,81.26
2017-12-28T01:29:54.077Z,81.26
2017-12-28T01:30:54.079Z,80.51
2017-12-28T01:31:54.075Z,80.60
2017-12-28T01:32:54.078Z,79.47
2017-12-28T01:33:54.082Z,79.28
2017-12-28T01:34:54.077Z,79.66
2017-12-28T01:35:54.080Z,80.04
2017-12-28T01:36:54.080Z,80.51
2017-12-28T01:37:54.080Z,80.51
2017-12-28T01:38:54.083Z,80.88
2017-12-28T01:39:54.085Z,80.98
2017-12-28T01:40:54.090Z,80.69
2017-12-28T01:41:54.092Z,81.45
2017-12-28T01:42:54.094Z,81.16
2017-12-28T01:43:54.093Z,81.16
2017-12-28T01:44:54.096Z,80.98
2017-12-28T01:45:54.098Z,80.98
2017-12-28T01:46:54.099Z,80.69
2017-12-28T01:47:54.093Z,80.60
2017-12-28T01:48:54.095Z,81.26
2017-12-28T01:49:54.101Z,81.26
2017-12-28T01:50:54.096Z,82.10
2017-12-28T01:51:54.096Z,81.82
2017-12-28T01:52:54.104Z,82.39
2017-12-28T01:53:54.101Z,82.10
2017-12-28T01:54:54.108Z,82.39
2017-12-28T01:55:54.106Z,82.39
2017-12-28T01:56:54.103Z,82.39
2017-12-28T01:57:54.104Z,81.35
2017-12-28T01:58:54.104Z,81.35
2017-12-28T01:59:54.114Z,80.04
2017-12-28T02:00:54.115Z,79.28
2017-12-28T02:01:54.107Z,79.00
2017-12-28T02:02:54.115Z,79.37
2017-12-28T02:03:54.109Z,79.75
2017-12-28T02:04:54.116Z,79.47
2017-12-28T02:05:54.119Z,79.47
2017-12-28T02:06:54.114Z,79.56
2017-12-28T02:07:54.178Z,79.37
2017-12-28T02:08:54.123Z,79.28
2017-12-28T02:09:54.122Z,79.19
2017-12-28T02:10:54.174Z,78.81
2017-12-28T02:11:54.125Z,78.52
2017-12-28T02:12:54.125Z,78.62
2017-12-28T02:13:54.120Z,78.43
2017-12-28T02:14:54.127Z,78.43
2017-12-28T02:15:54.131Z,77.86
2017-12-28T02:16:54.125Z,78.43
2017-12-28T02:17:54.131Z,78.34
2017-12-28T02:18:54.134Z,79.19
2017-12-28T02:19:54.128Z,79.56
2017-12-28T02:20:54.129Z,80.32
2017-12-28T02:21:54.133Z,79.66
2017-12-28T02:22:54.131Z,79.85
2017-12-28T02:23:54.133Z,80.32
2017-12-28T02:24:54.140Z,80.69
2017-12-28T02:25:54.140Z,80.60
2017-12-28T02:26:54.135Z,80.13
2017-12-28T02:27:54.137Z,80.13
2017-12-28T02:28:54.145Z,80.41
2017-12-28T02:29:54.139Z,80.69
2017-12-28T02:30:54.143Z,80.69
2017-12-28T02:31:54.142Z,80.69
2017-12-28T02:32:54.143Z,80.60
2017-12-28T02:33:54.144Z,80.41
2017-12-28T02:34:54.149Z,80.41
2017-12-28T02:35:54.150Z,80.79
2017-12-28T02:36:54.154Z,79.75
2017-12-28T02:37:54.148Z,78.90
2017-12-28T02:38:54.156Z,79.00
2017-12-28T02:39:54.152Z,79.09
2017-12-28T02:40:54.158Z,79.85
2017-12-28T02:41:54.160Z,80.22
2017-12-28T02:42:54.158Z,80.32
2017-12-28T02:43:54.163Z,80.13
2017-12-28T02:44:54.155Z,79.85
2017-12-28T02:45:54.156Z,80.69
2017-12-28T02:46:54.159Z,80.60
2017-12-28T02:47:54.161Z,80.88
2017-12-28T02:48:54.167Z,80.79
2017-12-28T02:49:54.165Z,80.13
2017-12-28T02:50:54.163Z,80.60
2017-12-28T02:51:54.174Z,80.60
2017-12-28T02:52:54.170Z,80.69
2017-12-28T02:53:54.171Z,80.04
2017-12-28T02:54:54.166Z,80.51
2017-12-28T02:55:54.166Z,80.22
2017-12-28T02:56:54.175Z,80.69
2017-12-28T02:57:54.174Z,80.51
2017-12-28T02:58:54.176Z,80.69
2017-12-28T02:59:54.177Z,79.75
2017-12-28T03:00:54.178Z,78.62
2017-12-28T03:01:54.182Z,78.34
2017-12-28T03:02:54.181Z,78.52
2017-12-28T03:03:54.181Z,78.52
2017-12-28T03:04:54.184Z,78.62
2017-12-28T03:05:54.185Z,79.47
2017-12-28T03:06:54.179Z,79.28
2017-12-28T03:07:54.187Z,80.32
2017-12-28T03:08:54.183Z,80.98
2017-12-28T03:09:54.188Z,80.51
2017-12-28T03:10:54.189Z,80.69
2017-12-28T03:11:54.184Z,80.13
2017-12-28T03:12:54.186Z,79.85
2017-12-28T03:13:54.184Z,79.85
2017-12-28T03:14:54.187Z,79.66
2017-12-28T03:15:54.194Z,79.75
2017-12-28T03:16:54.189Z,79.47
2017-12-28T03:17:54.190Z,79.28
2017-12-28T03:18:54.192Z,79.56
2017-12-28T03:19:54.197Z,80.13
2017-12-28T03:20:54.194Z,80.51
2017-12-28T03:21:54.199Z,80.32
2017-12-28T03:22:54.201Z,80.51
2017-12-28T03:23:54.198Z,80.51
2017-12-28T03:24:54.205Z,80.13
2017-12-28T03:25:54.198Z,79.94
2017-12-28T03:26:54.204Z,80.13
2017-12-28T03:27:54.201Z,79.66
2017-12-28T03:28:54.205Z,79.37
2017-12-28T03:29:54.208Z,79.28
2017-12-28T03:30:54.204Z,79.28
2017-12-28T03:31:54.212Z,79.19
2017-12-28T03:32:54.212Z,79.94
2017-12-28T03:33:54.207Z,80.13
2017-12-28T03:34:54.215Z,79.85
2017-12-28T03:35:54.210Z,79.66
2017-12-28T03:36:54.210Z,79.28
2017-12-28T03:37:54.211Z,79.19
2017-12-28T03:38:54.218Z,79.00
2017-12-28T03:39:54.214Z,78.71
2017-12-28T03:40:54.217Z,79.00
2017-12-28T03:41:54.216Z,79.28
2017-12-28T03:42:54.222Z,79.19
2017-12-28T03:43:54.218Z,79.19
2017-12-28T03:44:54.218Z,79.85
2017-12-28T03:45:54.220Z,79.28
2017-12-28T03:46:54.226Z,78.15
2017-12-28T03:47:54.228Z,78.52
2017-12-28T03:48:54.229Z,77.77
2017-12-28T03:49:54.229Z,77.67
2017-12-28T03:50:54.223Z,78.05
2017-12-28T03:51:54.231Z,78.05
2017-12-28T03:52:54.229Z,78.24
2017-12-28T03:53:54.234Z,78.71
2017-12-28T03:54:54.235Z,78.90
2017-12-28T03:55:54.235Z,78.71
2017-12-28T03:56:54.236Z,77.96
2017-12-28T03:57:54.236Z,78.05
2017-12-28T03:58:54.233Z,78.43
2017-12-28T03:59:54.235Z,78.62
2017-12-28T04:00:54.243Z,79.09
2017-12-28T04:01:54.241Z,79.19
2017-12-28T04:02:54.242Z,79.09
2017-12-28T04:03:54.241Z,78.52
2017-12-28T04:04:54.240Z,79.09
2017-12-28T04:05:54.240Z,79.00
2017-12-28T04:06:54.243Z,79.09
2017-12-28T04:07:54.243Z,78.62
2017-12-28T04:08:54.251Z,78.81
2017-12-28T04:09:54.252Z,79.09
2017-12-28T04:10:54.252Z,79.00
2017-12-28T04:11:54.249Z,79.00
2017-12-28T04:12:54.256Z,79.19
2017-12-28T04:13:54.249Z,79.09
2017-12-28T04:14:54.257Z,79.19
2017-12-28T04:15:54.260Z,79.19
2017-12-28T04:16:54.262Z,79.28
2017-12-28T04:17:54.260Z,79.75
2017-12-28T04:18:54.257Z,79.75
2017-12-28T04:19:54.258Z,79.56
2017-12-28T04:20:54.266Z,79.28
2017-12-28T04:21:54.259Z,79.19
2017-12-28T04:22:54.268Z,79.56
2017-12-28T04:23:54.268Z,79.75
2017-12-28T04:24:54.270Z,79.66
2017-12-28T04:25:54.273Z,79.19
2017-12-28T04:26:54.266Z,79.19
2017-12-28T04:27:54.267Z,79.28
2017-12-28T04:28:54.269Z,78.90
2017-12-28T04:29:54.269Z,78.34
2017-12-28T04:30:54.270Z,78.90
2017-12-28T04:31:54.271Z,78.71
2017-12-28T04:32:54.273Z,79.75
2017-12-28T04:33:54.278Z,79.56
2017-12-28T04:34:54.281Z,80.04
2017-12-28T04:35:54.280Z,80.51
2017-12-28T04:36:54.282Z,80.51
2017-12-28T04:37:54.283Z,80.04
2017-12-28T04:38:54.279Z,80.04
2017-12-28T04:39:54.286Z,80.22
2017-12-28T04:40:54.287Z,80.79
2017-12-28T04:41:54.287Z,81.35
2017-12-28T04:42:54.289Z,81.82
2017-12-28T04:43:54.284Z,81.92
2017-12-28T04:44:54.292Z,81.63
2017-12-28T04:45:54.293Z,81.73
2017-12-28T04:46:54.293Z,82.48
2017-12-28T04:47:54.290Z,82.58
2017-12-28T04:48:54.290Z,81.45
2017-12-28T04:49:54.299Z,81.16
2017-12-28T04:50:54.292Z,81.45
2017-12-28T04:51:54.298Z,82.39
2017-12-28T04:52:54.295Z,82.86
2017-12-28T04:53:54.301Z,83.24
2017-12-28T04:54:54.296Z,83.71
2017-12-28T04:55:54.296Z,84.47
2017-12-28T04:56:54.301Z,83.99
2017-12-28T04:57:54.299Z,84.09
2017-12-28T04:58:54.306Z,84.37
2017-12-28T04:59:54.302Z,84.37
2017-12-28T05:00:54.307Z,84.28
2017-12-28T05:01:54.301Z,84.18
2017-12-28T05:02:54.308Z,84.18
2017-12-28T05:03:54.304Z,83.61
2017-12-28T05:04:54.306Z,83.24
2017-12-28T05:05:54.305Z,84.09
2017-12-28T05:06:54.312Z,83.99
2017-12-28T05:07:54.313Z,84.28
2017-12-28T05:08:54.308Z,84.37
2017-12-28T05:09:54.308Z,84.28
2017-12-28T05:10:54.315Z,84.18
2017-12-28T05:11:54.317Z,84.09
2017-12-28T05:12:54.317Z,83.99
2017-12-28T05:13:54.319Z,84.56
2017-12-28T05:14:54.317Z,85.60
2017-12-28T05:15:54.315Z,85.69
2017-12-28T05:16:54.315Z,85.31
2017-12-28T05:17:54.315Z,85.60
2017-12-28T05:18:54.321Z,85.78
2017-12-28T05:19:54.322Z,84.94
2017-12-28T05:20:54.319Z,84.37
2017-12-28T05:21:54.324Z,84.09
2017-12-28T05:22:54.325Z,84.37
2017-12-28T05:23:54.320Z,83.71
2017-12-28T05:24:54.328Z,83.90
2017-12-28T05:25:54.326Z,84.09
2017-12-28T05:26:54.322Z,84.56
2017-12-28T05:27:54.323Z,84.47
2017-12-28T05:28:54.325Z,84.28
2017-12-28T05:29:54.324Z,84.28
2017-12-28T05:30:54.330Z,84.47
2017-12-28T05:31:54.331Z,84.47
2017-12-28T05:32:54.335Z,84.09
2017-12-28T05:33:54.333Z,83.05
2017-12-28T05:34:54.334Z,83.43
2017-12-28T05:35:54.334Z,83.24
2017-12-28T05:36:54.339Z,83.90
2017-12-28T05:37:54.330Z,84.09
2017-12-28T05:38:54.331Z,84.47
2017-12-28T05:39:54.332Z,84.18
2017-12-28T05:40:54.342Z,83.99
2017-12-28T05:41:54.337Z,83.61
2017-12-28T05:42:54.335Z,83.71
2017-12-28T05:43:54.342Z,82.95
2017-12-28T05:44:54.343Z,83.24
2017-12-28T05:45:54.342Z,83.43
2017-12-28T05:46:54.343Z,83.61
2017-12-28T05:47:54.340Z,83.52
2017-12-28T05:48:54.395Z,83.05
2017-12-28T05:49:54.344Z,82.29
2017-12-28T05:50:54.345Z,82.58
2017-12-28T05:51:54.345Z,82.58
2017-12-28T05:52:54.347Z,83.05
2017-12-28T05:53:54.343Z,83.05
2017-12-28T05:54:54.343Z,84.28
2017-12-28T05:55:54.349Z,84.37
2017-12-28T05:56:54.350Z,84.56
2017-12-28T05:57:54.344Z,85.03
2017-12-28T05:58:54.345Z,84.84
2017-12-28T05:59:54.346Z,85.03
2017-12-28T06:00:54.350Z,84.84
2017-12-28T06:01:54.353Z,85.03
2017-12-28T06:02:54.348Z,85.03
2017-12-28T06:03:54.349Z,84.56
2017-12-28T06:04:54.354Z,84.65
2017-12-28T06:05:54.354Z,84.18
2017-12-28T06:06:54.356Z,84.18
2017-12-28T06:07:54.358Z,83.05
2017-12-28T06:08:54.353Z,82.95
2017-12-28T06:09:54.351Z,83.24
2017-12-28T06:10:54.362Z,84.56
2017-12-28T06:11:54.367Z,84.28
2017-12-28T06:12:54.360Z,84.28
2017-12-28T06:13:54.358Z,84.09
2017-12-28T06:14:54.362Z,83.99
2017-12-28T06:15:54.514Z,83.05
2017-12-28T06:16:54.361Z,82.67
2017-12-28T06:17:54.358Z,82.39
2017-12-28T06:18:54.366Z,82.39
2017-12-28T06:19:54.364Z,82.20
2017-12-28T06:20:54.369Z,82.20
2017-12-28T06:21:54.367Z,82.20
2017-12-28T06:22:54.363Z,82.76
2017-12-28T06:23:54.375Z,83.14
2017-12-28T06:24:54.372Z,83.33
2017-12-28T06:25:54.366Z,83.05
2017-12-28T06:26:54.372Z,82.29
2017-12-28T06:27:54.368Z,82.10
2017-12-28T06:28:54.373Z,81.45
2017-12-28T06:29:54.377Z,81.45
2017-12-28T06:30:54.376Z,81.45
2017-12-28T06:31:54.375Z,81.92
2017-12-28T06:32:54.372Z,82.01
2017-12-28T06:33:54.382Z,82.58
2017-12-28T06:34:54.380Z,83.14
2017-12-28T06:35:54.380Z,83.43
2017-12-28T06:36:54.375Z,83.52
2017-12-28T06:37:54.376Z,83.90
2017-12-28T06:38:54.383Z,84.28
2017-12-28T06:39:54.378Z,83.90
2017-12-28T06:40:54.382Z,83.90
2017-12-28T06:41:54.384Z,86.82
2017-12-28T06:42:54.388Z,88.99
2017-12-28T06:43:54.382Z,89.65
2017-12-28T06:44:54.384Z,89.27
2017-12-28T06:45:54.386Z,89.08
2017-12-28T06:46:54.387Z,88.23
2017-12-28T06:47:54.392Z,88.04
2017-12-28T06:48:54.386Z,87.57
2017-12-28T06:49:54.391Z,87.38
2017-12-28T06:50:54.385Z,87.76
2017-12-28T06:51:54.391Z,88.23
2017-12-28T06:52:54.388Z,88.42
2017-12-28T06:53:54.389Z,88.52
2017-12-28T06:54:54.398Z,88.61
2017-12-28T06:55:54.395Z,87.86
2017-12-28T06:56:54.395Z,87.01
2017-12-28T06:57:54.391Z,86.72
2017-12-28T06:58:54.402Z,86.25
2017-12-28T06:59:54.399Z,85.69
2017-12-28T07:00:54.396Z,85.13
2017-12-28T07:01:54.401Z,84.65
2017-12-28T07:02:54.396Z,84.75
2017-12-28T07:03:54.396Z,84.28
2017-12-28T07:04:54.402Z,83.52
2017-12-28T07:05:54.405Z,82.39
2017-12-28T07:06:54.400Z,82.01
2017-12-28T07:07:54.400Z,82.58
2017-12-28T07:08:54.408Z,82.95
2017-12-28T07:09:54.405Z,82.67
2017-12-28T07:10:54.763Z,81.92
2017-12-28T07:11:54.403Z,81.16
2017-12-28T07:12:54.409Z,81.07
2017-12-28T07:13:54.403Z,81.26
2017-12-28T07:14:54.410Z,81.45
2017-12-28T07:15:54.410Z,82.10
2017-12-28T07:16:54.411Z,80.98
2017-12-28T07:17:54.405Z,80.69
2017-12-28T07:18:54.418Z,80.04
2017-12-28T07:19:54.416Z,79.94
2017-12-28T07:20:54.412Z,79.94
2017-12-28T07:21:54.411Z,79.19
2017-12-28T07:22:54.409Z,79.47
2017-12-28T07:23:54.409Z,78.81
2017-12-28T07:24:54.416Z,79.09
2017-12-28T07:25:54.416Z,79.09
2017-12-28T07:26:54.414Z,79.85
2017-12-28T07:27:54.418Z,79.66
2017-12-28T07:28:54.412Z,79.47
2017-12-28T07:29:54.416Z,79.56
2017-12-28T07:30:54.412Z,79.37
2017-12-28T07:31:54.414Z,79.56
2017-12-28T07:32:54.413Z,79.56
2017-12-28T07:33:54.415Z,78.81
2017-12-28T07:34:54.417Z,78.24
2017-12-28T07:35:54.416Z,77.58
2017-12-28T07:36:54.431Z,77.01
2017-12-28T07:37:54.420Z,77.49
2017-12-28T07:38:54.419Z,77.86
2017-12-28T07:39:54.419Z,77.86
2017-12-28T07:40:54.425Z,78.62
2017-12-28T07:41:54.423Z,78.71
2017-12-28T07:42:54.425Z,78.62
2017-12-28T07:43:54.428Z,78.52
2017-12-28T07:44:54.427Z,78.71
2017-12-28T07:45:54.426Z,77.67
2017-12-28T07:46:54.427Z,77.86
2017-12-28T07:47:54.422Z,75.60
2017-12-28T07:48:54.424Z,75.23
2017-12-28T07:49:54.422Z,75.13
2017-12-28T07:50:54.428Z,75.23
2017-12-28T07:51:54.425Z,76.17
2017-12-28T07:52:54.427Z,77.30
2017-12-28T07:53:54.432Z,77.77
2017-12-28T07:54:54.433Z,77.67
2017-12-28T07:55:54.429Z,76.82
2017-12-28T07:56:54.432Z,76.54
2017-12-28T07:57:54.427Z,75.13
2017-12-28T07:58:54.434Z,74.57
2017-12-28T07:59:54.431Z,74.66
2017-12-28T08:00:54.430Z,74.85
2017-12-28T08:01:54.430Z,74.95
2017-12-28T08:02:54.432Z,74.85
2017-12-28T08:03:54.431Z,75.32
2017-12-28T08:04:54.431Z,75.79
2017-12-28T08:05:54.432Z,75.70
2017-12-28T08:06:54.432Z,74.85
2017-12-28T08:07:54.439Z,75.23
2017-12-28T08:08:54.439Z,74.76
2017-12-28T08:09:54.441Z,74.85
2017-12-28T08:10:54.435Z,75.04
2017-12-28T08:11:54.437Z,74.76
2017-12-28T08:12:54.438Z,74.76
2017-12-28T08:13:54.440Z,73.91
2017-12-28T08:14:54.445Z,73.72
2017-12-28T08:15:54.444Z,73.62
2017-12-28T08:16:54.441Z,74.10
2017-12-28T08:17:54.478Z,73.81
2017-12-28T08:18:54.441Z,74.85
2017-12-28T08:19:54.442Z,74.85
2017-12-28T08:20:54.443Z,74.85
2017-12-28T08:21:54.450Z,74.76
2017-12-28T08:22:54.454Z,74.66
2017-12-28T08:23:54.445Z,75.70
2017-12-28T08:24:54.446Z,75.60
2017-12-28T08:25:54.446Z,75.60
2017-12-28T08:26:54.452Z,76.17
2017-12-28T08:27:54.453Z,76.54
2017-12-28T08:28:54.454Z,76.82
2017-12-28T08:29:54.459Z,77.96
2017-12-28T08:30:54.456Z,78.52
2017-12-28T08:31:54.457Z,78.24
2017-12-28T08:32:54.458Z,78.05
2017-12-28T08:33:54.453Z,78.71
2017-12-28T08:34:54.459Z,79.19
2017-12-28T08:35:54.454Z,79.19
2017-12-28T08:36:54.461Z,78.34
2017-12-28T08:37:54.457Z,79.28
2017-12-28T08:38:54.477Z,79.00
2017-12-28T08:39:54.465Z,79.00
2017-12-28T08:40:54.460Z,79.00
2017-12-28T08:41:54.460Z,79.00
2017-12-28T08:42:54.458Z,79.09
2017-12-28T08:43:54.461Z,79.66
2017-12-28T08:44:54.462Z,79.66
2017-12-28T08:45:54.468Z,77.96
2017-12-28T08:46:54.467Z,78.15
2017-12-28T08:47:54.621Z,78.71
2017-12-28T08:48:54.465Z,79.00
2017-12-28T08:49:54.465Z,79.00
2017-12-28T08:50:54.468Z,78.81
2017-12-28T08:51:54.470Z,79.19
2017-12-28T08:52:54.472Z,80.69
2017-12-28T08:53:54.474Z,80.69
2017-12-28T08:54:54.471Z,80.22
2017-12-28T08:55:54.475Z,80.79
2017-12-28T08:56:54.470Z,80.69
2017-12-28T08:57:54.473Z,80.79
2017-12-28T08:58:54.476Z,80.79
2017-12-28T08:59:54.471Z,80.41
2017-12-28T09:00:54.481Z,80.22
2017-12-28T09:01:54.476Z,80.60
2017-12-28T09:02:54.475Z,80.60
2017-12-28T09:03:54.482Z,81.45
2017-12-28T09:04:54.476Z,81.45
2017-12-28T09:05:54.476Z,81.35
2017-12-28T09:06:54.477Z,81.54
2017-12-28T09:07:54.485Z,81.54
2017-12-28T09:08:54.483Z,81.63
2017-12-28T09:09:54.494Z,82.39
2017-12-28T09:10:54.485Z,82.48
2017-12-28T09:11:54.485Z,81.73
2017-12-28T09:12:54.483Z,81.16
2017-12-28T09:13:54.488Z,80.79
2017-12-28T09:14:54.489Z,79.09
2017-12-28T09:15:54.484Z,78.62
2017-12-28T09:16:54.484Z,78.52
2017-12-28T09:17:54.492Z,78.81
2017-12-28T09:18:54.493Z,79.00
2017-12-28T09:19:54.492Z,78.15
2017-12-28T09:20:54.494Z,77.49
2017-12-28T09:21:54.498Z,76.17
2017-12-28T09:22:54.496Z,75.79
2017-12-28T09:23:54.491Z,75.42
2017-12-28T09:24:54.498Z,74.95
2017-12-28T09:25:54.550Z,74.57
2017-12-28T09:26:54.499Z,74.10
2017-12-28T09:27:54.497Z,72.68
2017-12-28T09:28:54.498Z,72.30
2017-12-28T09:29:54.500Z,71.73
2017-12-28T09:30:54.497Z,71.55
2017-12-28T09:31:54.507Z,71.73
2017-12-28T09:32:54.500Z,72.40
2017-12-28T09:33:54.506Z,71.83
2017-12-28T09:34:54.512Z,71.55
2017-12-28T09:35:54.510Z,71.83
2017-12-28T09:36:54.512Z,72.02
2017-12-28T09:37:54.511Z,71.83
2017-12-28T09:38:54.515Z,71.26
2017-12-28T09:39:54.513Z,70.79
2017-12-28T09:40:54.518Z,71.08
2017-12-28T09:41:54.517Z,71.08
2017-12-28T09:42:54.525Z,71.17
2017-12-28T09:43:54.520Z,70.26
2017-12-28T09:44:54.518Z,68.85
2017-12-28T09:45:54.524Z,67.34
2017-12-28T09:46:54.524Z,66.40
2017-12-28T09:47:54.523Z,65.36
2017-12-28T09:48:54.523Z,63.89
2017-12-28T09:49:54.528Z,63.13
2017-12-28T09:50:54.528Z,61.90
2017-12-28T09:51:54.579Z,60.39
2017-12-28T09:52:54.534Z,60.11
2017-12-28T09:53:54.549Z,59.73
2017-12-28T09:54:54.581Z,59.35
2017-12-28T09:55:54.535Z,58.12
2017-12-28T09:56:54.544Z,57.46
2017-12-28T09:57:54.540Z,55.98
2017-12-28T09:58:54.543Z,54.19
2017-12-28T09:59:54.553Z,52.33
2017-12-28T10:00:54.546Z,49.52
2017-12-28T10:01:54.549Z,47.47
2017-12-28T10:02:54.549Z,44.93
2017-12-28T10:03:54.550Z,42.66
2017-12-28T10:04:54.557Z,42.10
2017-12-28T10:05:54.564Z,42.00
2017-12-28T10:06:54.563Z,40.32
2017-12-28T10:07:54.562Z,39.68
2017-12-28T10:08:54.569Z,37.76
2017-12-28T10:09:54.570Z,38.22
2017-12-28T10:10:54.570Z,38.88
2017-12-28T10:11:54.578Z,41.02
2017-12-28T10:12:54.582Z,44.30
2017-12-28T10:13:54.578Z,50.89
2017-12-28T10:14:54.584Z,53.25
2017-12-28T10:15:54.593Z,51.45
2017-12-28T10:16:54.615Z,51.83
2017-12-28T10:17:54.605Z,50.13
2017-12-28T10:18:54.600Z,47.86
2017-12-28T10:19:54.616Z,47.77
2017-12-28T10:20:54.630Z,46.66
2017-12-28T10:21:54.699Z,45.72
2017-12-28T10:22:54.607Z,44.37
2017-12-28T10:23:54.618Z,51.54
2017-12-28T10:24:54.620Z,56.55
2017-12-28T10:25:54.614Z,58.91
2017-12-28T10:26:54.618Z,56.81
2017-12-28T10:27:54.624Z,53.97
2017-12-28T10:28:54.625Z,53.22
2017-12-28T10:29:54.632Z,55.01
2017-12-28T10:30:54.631Z,57.65
2017-12-28T10:31:54.634Z,59.07
2017-12-28T10:32:54.644Z,61.24
2017-12-28T10:33:54.641Z,62.75
2017-12-28T10:34:54.641Z,64.07
2017-12-28T10:35:54.653Z,63.89
2017-12-28T10:36:54.651Z,62.94
2017-12-28T10:37:54.663Z,61.43
2017-12-28T10:38:54.656Z,59.45
2017-12-28T10:39:54.656Z,56.81
2017-12-28T10:40:54.664Z,55.96
2017-12-28T10:41:54.665Z,56.05
2017-12-28T10:42:54.671Z,55.96
2017-12-28T10:43:54.671Z,56.05
2017-12-28T10:44:54.678Z,56.34
2017-12-28T10:45:54.682Z,55.86
2017-12-28T10:46:54.685Z,55.30
2017-12-28T10:47:54.688Z,55.58
2017-12-28T10:48:54.693Z,53.69
2017-12-28T10:49:54.692Z,53.03
2017-12-28T10:50:54.691Z,53.69
2017-12-28T10:51:54.699Z,53.88
2017-12-28T10:52:54.699Z,54.28
2017-12-28T10:53:54.713Z,54.75
2017-12-28T10:54:54.709Z,53.78
2017-12-28T10:55:54.706Z,54.10
2017-12-28T10:56:54.711Z,53.72
2017-12-28T10:57:54.719Z,53.81
2017-12-28T10:58:54.722Z,53.44
2017-12-28T10:59:54.727Z,52.30
2017-12-28T11:00:54.728Z,52.96
2017-12-28T11:01:54.731Z,54.85
2017-12-28T11:02:54.730Z,53.91
2017-12-28T11:03:54.735Z,51.39
2017-12-28T11:04:54.744Z,48.36
2017-12-28T11:05:54.741Z,46.47
2017-12-28T11:06:54.743Z,45.72
2017-12-28T11:07:54.753Z,45.72
2017-12-28T11:08:54.750Z,45.62
2017-12-28T11:09:54.756Z,47.04
2017-12-28T11:10:54.763Z,48.18
2017-12-28T11:11:54.770Z,47.67
2017-12-28T11:12:54.771Z,48.13
2017-12-28T11:13:54.780Z,50.10
2017-12-28T11:14:54.774Z,51.24
2017-12-28T11:15:54.785Z,52.37
2017-12-28T11:16:54.784Z,55.20
2017-12-28T11:17:54.794Z,58.60
2017-12-28T11:18:54.797Z,60.77
2017-12-28T11:19:54.804Z,61.90
2017-12-28T11:20:54.797Z,61.99
2017-12-28T11:21:54.806Z,61.43
2017-12-28T11:22:54.818Z,60.30
2017-12-28T11:23:54.815Z,59.73
2017-12-28T11:24:54.816Z,60.21
2017-12-28T11:25:54.819Z,60.58
2017-12-28T11:26:54.833Z,59.92
2017-12-28T11:27:54.822Z,59.67
2017-12-28T11:28:54.830Z,58.91
2017-12-28T11:29:54.842Z,59.45
2017-12-28T11:30:54.839Z,61.05
2017-12-28T11:31:54.842Z,61.08
2017-12-28T11:32:54.848Z,60.14
2017-12-28T11:33:54.844Z,58.82
2017-12-28T11:34:54.851Z,56.55
2017-12-28T11:35:54.857Z,55.42
2017-12-28T11:36:54.866Z,55.98
2017-12-28T11:37:54.865Z,55.98
2017-12-28T11:38:54.871Z,56.84
2017-12-28T11:39:54.872Z,57.78
2017-12-28T11:40:54.875Z,58.15
2017-12-28T11:41:54.875Z,56.74
2017-12-28T11:42:54.887Z,55.32
2017-12-28T11:43:54.881Z,55.32
2017-12-28T11:44:54.891Z,55.13
2017-12-28T11:45:54.888Z,55.13
2017-12-28T11:46:54.898Z,55.26
2017-12-28T11:47:54.904Z,54.55
2017-12-28T11:48:54.907Z,53.83
2017-12-28T11:49:54.904Z,51.56
2017-12-28T11:50:54.917Z,48.63
2017-12-28T11:51:54.918Z,47.32
2017-12-28T11:52:54.923Z,45.81
2017-12-28T11:53:54.933Z,44.93
2017-12-28T11:54:54.958Z,45.22
2017-12-28T11:55:54.943Z,45.69
2017-12-28T11:56:54.939Z,47.68
2017-12-28T11:57:54.950Z,46.83
2017-12-28T11:58:54.952Z,46.45
2017-12-28T11:59:54.966Z,45.76
2017-12-28T12:00:54.985Z,45.76
2017-12-28T12:01:54.984Z,45.12
2017-12-28T12:02:54.975Z,45.60
2017-12-28T12:03:54.983Z,46.26
2017-12-28T12:04:56.857Z,45.90
2017-12-28T12:05:54.993Z,45.50
2017-12-28T12:06:55.006Z,45.88
2017-12-28T12:07:55.007Z,47.85
2017-12-28T12:08:55.014Z,48.06
2017-12-28T12:09:55.020Z,48.34
2017-12-28T12:10:55.077Z,47.56
2017-12-28T12:11:55.036Z,49.16
2017-12-28T12:12:55.038Z,49.45
2017-12-28T12:13:55.050Z,48.69
2017-12-28T12:14:55.053Z,48.41
2017-12-28T12:15:55.059Z,48.13
2017-12-28T12:16:55.069Z,47.30
2017-12-28T12:17:55.072Z,45.22
2017-12-28T12:18:55.085Z,45.31
2017-12-28T12:19:55.086Z,44.53
2017-12-28T12:20:55.100Z,45.39
2017-12-28T12:21:55.107Z,46.14
2017-12-28T12:22:55.108Z,45.67
2017-12-28T12:23:55.111Z,45.57
2017-12-28T12:24:55.125Z,45.74
2017-12-28T12:25:55.134Z,43.85
2017-12-28T12:26:55.134Z,45.36
2017-12-28T12:27:55.138Z,45.20
2017-12-28T12:28:55.155Z,45.74
2017-12-28T12:29:55.156Z,47.13
2017-12-28T12:30:55.158Z,49.49
2017-12-28T12:31:55.172Z,48.65
2017-12-28T12:32:55.177Z,47.51
2017-12-28T12:33:55.183Z,47.89
2017-12-28T12:34:55.189Z,48.95
2017-12-28T12:35:55.203Z,47.91
2017-12-28T12:36:55.203Z,46.97
2017-12-28T12:37:55.209Z,47.56
2017-12-28T12:38:55.217Z,47.09
2017-12-28T12:39:55.218Z,46.02
2017-12-28T12:40:55.232Z,46.12
2017-12-28T12:41:55.239Z,46.90
2017-12-28T12:42:55.242Z,46.97
2017-12-28T12:43:55.255Z,47.72
2017-12-28T12:44:55.257Z,47.72
2017-12-28T12:45:55.262Z,46.59
2017-12-28T12:46:55.271Z,47.06
2017-12-28T12:47:55.273Z,47.25
2017-12-28T12:48:55.288Z,47.53
2017-12-28T12:49:55.289Z,48.10
2017-12-28T12:50:55.301Z,48.18
2017-12-28T12:51:55.308Z,48.65
2017-12-28T12:52:55.313Z,49.43